Time;durP1;ratioP1;P1;durP2;ratioP2;P2;SDS_P1;SDS_P2;PMS_P1;PMS_P2;Temp;Humidity;BMP_temperature;BMP_pressure;BME280_temperature;BME280_humidity;BME280_pressure;Samples;Min_cycle;Max_cycle;Signal;HPM_P1;HPM_P2
2021/09/20 00:00:38;;;;;;;4.77;1.40;;;16.50;99.90;;;;;;6231489;23;20176;-93
2021/09/20 00:03:10;;;;;;;6.03;1.37;;;16.50;99.90;;;;;;6224620;23;20540;-94
2021/09/20 00:05:41;;;;;;;3.40;1.23;;;16.40;99.90;;;;;;6229461;23;20503;-92
2021/09/20 00:08:13;;;;;;;6.03;1.70;;;16.40;99.90;;;;;;6200510;23;20180;-93
2021/09/20 00:10:44;;;;;;;5.30;2.47;;;16.40;99.90;;;;;;6224991;23;20255;-93
2021/09/20 00:13:17;;;;;;;6.90;1.47;;;16.30;99.90;;;;;;6218791;23;20183;-93
2021/09/20 00:15:48;;;;;;;6.40;1.67;;;16.20;99.90;;;;;;6225154;23;20192;-94
2021/09/20 00:18:20;;;;;;;6.70;1.80;;;16.10;99.90;;;;;;6230074;23;20199;-93
2021/09/20 00:20:52;;;;;;;4.07;1.53;;;15.80;99.90;;;;;;6205485;23;20376;-92
2021/09/20 00:23:24;;;;;;;4.73;1.70;;;15.60;99.90;;;;;;6231785;23;20220;-94
2021/09/20 00:25:57;;;;;;;8.27;2.17;;;15.60;99.90;;;;;;6207152;23;20176;-95
2021/09/20 00:28:30;;;;;;;6.47;1.90;;;15.50;99.90;;;;;;6231209;23;20247;-91
2021/09/20 00:31:05;;;;;;;3.87;1.70;;;15.40;99.90;;;;;;6230802;23;20177;-96
2021/09/20 00:33:41;;;;;;;8.97;1.90;;;15.30;99.90;;;;;;6225034;23;20535;-95
2021/09/20 00:36:12;;;;;;;5.57;2.00;;;15.30;99.90;;;;;;6230247;23;20177;-94
2021/09/20 00:38:46;;;;;;;6.57;1.83;;;15.30;99.90;;;;;;6237140;23;20169;-94
2021/09/20 00:41:19;;;;;;;6.13;1.70;;;15.20;99.90;;;;;;6233640;23;20160;-94
2021/09/20 00:43:53;;;;;;;3.60;1.20;;;15.10;99.90;;;;;;6236182;23;20231;-91
2021/09/20 00:46:34;;;;;;;4.77;1.63;;;15.10;99.90;;;;;;6188940;23;20580;-96
2021/09/20 00:49:06;;;;;;;6.90;1.80;;;15.10;99.90;;;;;;6233053;23;20192;-95
2021/09/20 00:51:38;;;;;;;4.80;1.90;;;15.10;99.90;;;;;;6233492;23;20189;-96
2021/09/20 00:54:09;;;;;;;9.07;1.90;;;15.10;99.90;;;;;;6232758;23;20176;-96
2021/09/20 00:56:41;;;;;;;5.57;2.33;;;15.00;99.90;;;;;;6235521;23;20160;-94
2021/09/20 00:59:22;;;;;;;6.10;1.80;;;15.00;99.90;;;;;;6212082;23;20177;-94
2021/09/20 01:01:54;;;;;;;4.23;1.70;;;15.00;99.90;;;;;;6231945;23;20203;-95
2021/09/20 01:04:27;;;;;;;7.83;1.80;;;14.90;99.90;;;;;;6230050;23;20239;-94
2021/09/20 01:06:58;;;;;;;6.87;1.80;;;14.90;99.90;;;;;;6206026;23;20173;-96
2021/09/20 01:09:30;;;;;;;6.93;2.03;;;14.80;99.90;;;;;;6232351;23;20184;-96
2021/09/20 01:12:03;;;;;;;5.00;1.90;;;14.80;99.90;;;;;;6236062;23;20188;-96
2021/09/20 01:14:38;;;;;;;8.33;2.30;;;14.80;99.90;;;;;;6231161;23;20229;-94
2021/09/20 01:17:10;;;;;;;3.27;1.50;;;15.00;99.90;;;;;;6233423;23;20213;-95
2021/09/20 01:19:42;;;;;;;6.70;2.00;;;15.00;99.90;;;;;;6207381;23;20164;-95
2021/09/20 01:22:17;;;;;;;4.93;1.80;;;15.00;99.90;;;;;;6237131;23;20180;-96
2021/09/20 01:24:53;;;;;;;8.77;2.30;;;15.00;99.90;;;;;;6234298;23;20168;-96
2021/09/20 01:27:37;;;;;;;8.00;2.20;;;15.00;99.90;;;;;;6232437;23;20236;-96
2021/09/20 01:30:10;;;;;;;4.13;1.80;;;15.10;99.90;;;;;;6235167;23;20176;-95
2021/09/20 01:32:42;;;;;;;3.97;2.03;;;15.10;99.90;;;;;;6231989;23;20187;-95
2021/09/20 01:35:13;;;;;;;7.83;2.00;;;15.20;99.90;;;;;;6237003;23;20156;-90
2021/09/20 01:37:46;;;;;;;6.63;2.03;;;15.20;99.90;;;;;;6241660;23;20192;-95
2021/09/20 01:40:21;;;;;;;7.33;2.10;;;15.20;99.90;;;;;;6242327;23;20164;-95
2021/09/20 01:42:53;;;;;;;4.33;1.80;;;15.20;99.90;;;;;;6241330;23;20204;-94
2021/09/20 01:45:25;;;;;;;4.03;1.90;;;15.20;99.90;;;;;;6241363;23;20164;-93
2021/09/20 01:47:57;;;;;;;5.87;2.07;;;15.30;99.90;;;;;;6242097;23;20188;-95
2021/09/20 01:53:13;;;;;;;8.43;2.17;;;15.20;99.90;;;;;;6197623;23;20271;-90
2021/09/20 01:55:47;;;;;;;3.90;2.10;;;15.20;99.90;;;;;;6218827;22;20202;-92
2021/09/20 01:58:18;;;;;;;6.17;2.37;;;15.30;99.90;;;;;;6240593;23;20211;-93
2021/09/20 02:00:49;;;;;;;6.27;2.17;;;15.30;99.90;;;;;;6239387;23;20168;-93
2021/09/20 02:03:21;;;;;;;4.20;1.80;;;15.30;99.90;;;;;;6241854;23;20211;-92
2021/09/20 02:05:57;;;;;;;5.17;2.07;;;15.20;99.90;;;;;;6217910;23;20214;-91
2021/09/20 02:08:28;;;;;;;9.73;2.03;;;15.20;99.90;;;;;;6244804;23;20180;-93
2021/09/20 02:11:03;;;;;;;8.43;2.20;;;15.20;99.90;;;;;;6211053;23;20197;-90
2021/09/20 02:13:35;;;;;;;3.00;1.40;;;15.20;99.90;;;;;;6213670;23;20156;-91
2021/09/20 02:16:06;;;;;;;7.67;1.70;;;15.20;99.90;;;;;;6213922;23;20241;-90
2021/09/20 02:18:39;;;;;;;4.40;1.87;;;15.20;99.90;;;;;;6213851;23;20201;-90
2021/09/20 02:21:13;;;;;;;5.33;1.60;;;15.20;99.90;;;;;;6211149;23;20153;-91
2021/09/20 02:23:45;;;;;;;5.27;1.60;;;15.10;99.90;;;;;;6211241;23;20168;-91
2021/09/20 02:26:18;;;;;;;3.97;1.50;;;15.10;99.90;;;;;;6211275;23;20169;-93
2021/09/20 02:28:50;;;;;;;3.53;1.03;;;15.00;99.90;;;;;;6205468;23;20177;-93
2021/09/20 02:31:21;;;;;;;4.07;1.80;;;15.00;99.90;;;;;;6209157;23;20177;-94
2021/09/20 02:33:53;;;;;;;2.37;1.50;;;15.00;99.90;;;;;;6205248;23;20197;-93
2021/09/20 02:36:26;;;;;;;4.37;1.43;;;15.00;99.90;;;;;;6205587;23;20165;-92
2021/09/20 02:38:58;;;;;;;5.47;1.80;;;15.00;99.90;;;;;;6206714;23;20228;-92
2021/09/20 02:41:34;;;;;;;3.53;1.50;;;14.90;99.90;;;;;;6202342;23;20173;-92
2021/09/20 02:44:07;;;;;;;4.93;1.80;;;14.90;99.90;;;;;;6201875;23;20177;-93
2021/09/20 02:46:38;;;;;;;4.03;1.63;;;14.90;99.90;;;;;;6202767;23;20287;-93
2021/09/20 02:49:10;;;;;;;4.53;1.90;;;14.80;99.90;;;;;;6203532;23;20184;-94
2021/09/20 02:51:41;;;;;;;5.90;2.00;;;14.80;99.90;;;;;;6203335;23;20182;-93
2021/09/20 02:59:26;;;;;;;5.43;2.30;;;14.70;99.90;;;;;;6236652;23;20234;-94
2021/09/20 03:04:46;;;;;;;8.10;2.33;;;14.60;99.90;;;;;;6226684;23;20612;-91
2021/09/20 03:07:18;;;;;;;6.73;2.50;;;14.60;99.90;;;;;;6202762;23;20235;-92
2021/09/20 03:09:50;;;;;;;5.47;2.37;;;14.60;99.90;;;;;;6232090;23;20180;-92
2021/09/20 03:12:21;;;;;;;8.47;2.60;;;14.60;99.90;;;;;;6234896;22;20169;-92
2021/09/20 03:14:55;;;;;;;8.13;2.83;;;14.50;99.90;;;;;;6229457;23;20176;-93
2021/09/20 03:17:31;;;;;;;8.27;2.70;;;14.50;99.90;;;;;;6204291;23;20236;-91
2021/09/20 03:20:04;;;;;;;7.67;2.80;;;14.50;99.90;;;;;;6225224;23;20176;-92
2021/09/20 03:22:35;;;;;;;6.43;2.40;;;14.50;99.90;;;;;;6232159;23;20172;-92
2021/09/20 03:25:08;;;;;;;6.87;2.87;;;14.50;99.90;;;;;;6226090;23;20177;-93
2021/09/20 03:27:44;;;;;;;9.97;3.40;;;14.60;99.90;;;;;;6221041;23;20176;-95
2021/09/20 03:30:38;;;;;;;6.57;2.37;;;14.70;99.90;;;;;;6197663;23;20175;-93
2021/09/20 03:33:10;;;;;;;5.93;2.57;;;14.80;99.90;;;;;;6237081;23;20235;-93
2021/09/20 03:35:42;;;;;;;6.03;2.80;;;14.70;99.90;;;;;;6235172;23;20181;-93
2021/09/20 03:38:16;;;;;;;8.50;2.77;;;14.70;99.90;;;;;;6234297;23;20211;-92
2021/09/20 03:40:49;;;;;;;4.27;3.07;;;14.70;99.90;;;;;;6235651;23;20157;-91
2021/09/20 03:43:22;;;;;;;5.93;3.10;;;14.70;99.90;;;;;;6211982;23;20179;-92
2021/09/20 03:45:57;;;;;;;4.03;2.33;;;14.70;99.90;;;;;;6232995;23;20268;-92
2021/09/20 03:48:30;;;;;;;6.63;2.30;;;14.70;99.90;;;;;;6210482;22;20172;-93
2021/09/20 03:51:03;;;;;;;3.37;1.70;;;14.70;99.90;;;;;;6238210;23;20180;-93
2021/09/20 03:53:35;;;;;;;4.50;2.20;;;14.60;99.90;;;;;;6233182;23;20181;-93
2021/09/20 03:56:08;;;;;;;7.90;2.27;;;14.60;99.90;;;;;;6227657;23;20180;-93
2021/09/20 03:58:40;;;;;;;2.70;1.57;;;14.60;99.90;;;;;;6228330;23;20211;-94
2021/09/20 04:01:15;;;;;;;3.63;2.10;;;14.50;99.90;;;;;;6236074;23;20219;-93
2021/09/20 04:03:51;;;;;;;3.37;1.90;;;14.60;99.90;;;;;;6237677;23;20240;-93
2021/09/20 04:06:24;;;;;;;6.20;1.73;;;14.60;99.90;;;;;;6238001;23;20172;-92
2021/09/20 04:09:00;;;;;;;7.47;2.33;;;14.40;99.90;;;;;;6211290;23;20202;-92
2021/09/20 04:11:40;;;;;;;3.93;1.80;;;14.30;99.90;;;;;;6238735;23;20180;-92
2021/09/20 04:14:13;;;;;;;5.83;1.80;;;14.30;99.90;;;;;;6238144;23;20180;-93
2021/09/20 04:16:49;;;;;;;2.83;1.70;;;14.30;99.90;;;;;;6241687;23;20223;-92
2021/09/20 04:19:25;;;;;;;2.67;1.60;;;14.20;99.90;;;;;;6241999;23;20195;-92
2021/09/20 04:21:59;;;;;;;3.03;1.57;;;14.20;99.90;;;;;;6243488;23;20259;-93
2021/09/20 04:24:40;;;;;;;3.40;1.70;;;14.20;99.90;;;;;;6243442;23;20180;-93
2021/09/20 04:27:12;;;;;;;4.53;1.67;;;14.20;99.90;;;;;;6242195;23;20176;-93
2021/09/20 04:29:45;;;;;;;2.53;1.27;;;14.20;99.90;;;;;;6242211;23;20192;-93
2021/09/20 04:32:20;;;;;;;3.73;1.50;;;14.10;99.90;;;;;;6216355;23;20191;-93
2021/09/20 04:34:52;;;;;;;4.47;1.40;;;14.00;99.90;;;;;;6240327;23;20222;-93
2021/09/20 04:37:24;;;;;;;1.53;1.20;;;14.00;99.90;;;;;;6235920;23;20181;-93
2021/09/20 04:39:55;;;;;;;1.73;1.20;;;13.80;99.90;;;;;;6200495;23;20220;-92
2021/09/20 04:42:27;;;;;;;1.80;1.27;;;13.70;99.90;;;;;;6235383;23;20229;-93
2021/09/20 04:44:59;;;;;;;2.07;1.30;;;13.70;99.90;;;;;;6222009;23;20199;-92
2021/09/20 04:47:35;;;;;;;3.53;1.43;;;13.60;99.90;;;;;;6224700;23;20242;-92
2021/09/20 04:50:10;;;;;;;1.70;1.10;;;13.50;99.90;;;;;;6223547;23;20202;-92
2021/09/20 04:52:42;;;;;;;1.73;1.20;;;13.40;99.90;;;;;;6220617;23;20180;-93
2021/09/20 04:55:14;;;;;;;2.27;1.20;;;13.30;99.90;;;;;;6221076;23;20557;-92
2021/09/20 04:57:45;;;;;;;2.23;1.27;;;13.30;99.90;;;;;;6220412;23;20259;-93
2021/09/20 05:00:17;;;;;;;6.23;1.93;;;13.20;99.90;;;;;;6219601;23;20215;-92
2021/09/20 05:02:50;;;;;;;2.60;1.40;;;13.20;99.90;;;;;;6218127;23;20722;-93
2021/09/20 05:05:23;;;;;;;1.83;1.20;;;13.20;99.90;;;;;;6193394;23;20558;-93
2021/09/20 05:07:54;;;;;;;1.47;1.23;;;13.20;99.90;;;;;;6219167;23;20173;-93
2021/09/20 05:10:26;;;;;;;5.13;1.60;;;13.20;99.90;;;;;;6220932;23;20611;-93
2021/09/20 05:12:58;;;;;;;3.30;1.40;;;13.20;99.90;;;;;;6220278;23;20175;-92
2021/09/20 05:15:29;;;;;;;2.60;1.67;;;13.20;99.90;;;;;;6219793;23;20196;-92
2021/09/20 05:18:03;;;;;;;2.50;1.50;;;13.10;99.90;;;;;;6218600;23;20180;-92
2021/09/20 05:20:35;;;;;;;5.83;1.93;;;13.10;99.90;;;;;;6218576;23;20265;-92
2021/09/20 05:23:07;;;;;;;3.00;1.63;;;13.00;99.90;;;;;;6218004;23;20850;-92
2021/09/20 05:25:39;;;;;;;4.30;2.00;;;13.00;99.90;;;;;;6216873;23;20180;-93
2021/09/20 05:28:11;;;;;;;4.47;1.67;;;13.00;99.90;;;;;;6218512;23;20227;-92
2021/09/20 05:30:42;;;;;;;2.10;1.60;;;13.00;99.90;;;;;;6217457;23;20176;-93
2021/09/20 05:33:18;;;;;;;3.27;1.60;;;13.00;99.90;;;;;;6221709;23;20207;-93
2021/09/20 05:35:51;;;;;;;3.40;1.50;;;12.90;99.90;;;;;;6235878;23;20195;-93
2021/09/20 05:38:24;;;;;;;4.07;2.00;;;12.90;99.90;;;;;;6232192;23;20191;-93
2021/09/20 05:40:56;;;;;;;4.00;1.50;;;12.80;99.90;;;;;;6229192;23;20206;-92
2021/09/20 05:43:28;;;;;;;4.50;1.60;;;12.80;99.90;;;;;;6232506;23;20173;-92
2021/09/20 05:46:00;;;;;;;3.07;1.67;;;12.70;99.90;;;;;;6229596;23;20176;-91
2021/09/20 05:48:35;;;;;;;1.53;1.33;;;12.70;99.90;;;;;;6220874;23;20176;-92
2021/09/20 05:51:06;;;;;;;1.53;1.27;;;12.60;99.90;;;;;;6190996;23;20203;-91
2021/09/20 05:53:39;;;;;;;3.70;1.63;;;12.50;99.90;;;;;;6230148;23;20165;-91
2021/09/20 05:56:15;;;;;;;2.37;1.50;;;12.50;99.90;;;;;;6204934;23;20210;-93
2021/09/20 05:58:46;;;;;;;2.10;1.40;;;12.50;99.90;;;;;;6229841;23;20250;-93
2021/09/20 06:01:19;;;;;;;1.90;1.30;;;12.50;99.90;;;;;;6231274;23;20192;-93
2021/09/20 06:03:54;;;;;;;2.90;1.50;;;12.40;99.90;;;;;;6227802;23;20168;-92
2021/09/20 06:06:25;;;;;;;2.73;1.60;;;12.40;99.90;;;;;;6228838;23;20239;-93
2021/09/20 06:08:57;;;;;;;1.70;1.60;;;12.30;99.90;;;;;;6218762;23;20168;-92
2021/09/20 06:11:28;;;;;;;6.73;1.97;;;12.30;99.90;;;;;;6227294;23;20164;-92
2021/09/20 06:13:59;;;;;;;4.40;1.70;;;12.30;99.90;;;;;;6216918;23;20223;-93
2021/09/20 06:16:30;;;;;;;3.90;1.63;;;12.30;99.90;;;;;;6218285;23;20184;-91
2021/09/20 06:19:04;;;;;;;2.63;1.80;;;12.30;99.90;;;;;;6218723;23;20223;-91
2021/09/20 06:21:38;;;;;;;5.03;2.50;;;12.20;99.90;;;;;;6222056;23;20168;-92
2021/09/20 06:24:11;;;;;;;2.60;1.90;;;12.20;99.90;;;;;;6209157;23;20239;-92
2021/09/20 06:26:42;;;;;;;4.57;2.13;;;12.20;99.90;;;;;;6217436;23;20176;-92
2021/09/20 06:29:13;;;;;;;6.13;2.37;;;12.20;99.90;;;;;;6218444;23;20182;-92
2021/09/20 06:31:44;;;;;;;5.10;2.43;;;12.10;99.90;;;;;;6218068;23;20188;-91
2021/09/20 06:34:19;;;;;;;4.70;3.00;;;12.20;99.90;;;;;;6199765;23;20176;-93
2021/09/20 06:36:50;;;;;;;7.87;3.47;;;12.20;99.90;;;;;;6240849;23;20236;-93
2021/09/20 06:39:21;;;;;;;8.53;3.33;;;12.10;99.90;;;;;;6242258;23;20160;-94
2021/09/20 06:41:53;;;;;;;9.80;3.47;;;12.20;99.90;;;;;;6201482;23;20165;-93
2021/09/20 06:44:24;;;;;;;10.10;3.80;;;12.20;99.90;;;;;;6224264;23;20630;-93
2021/09/20 06:46:56;;;;;;;10.07;3.37;;;12.30;99.90;;;;;;6217794;23;20203;-93
2021/09/20 06:49:30;;;;;;;11.83;4.70;;;12.30;99.90;;;;;;6218156;23;20195;-92
2021/09/20 06:52:01;;;;;;;9.23;4.13;;;12.40;99.90;;;;;;6217786;23;20199;-92
2021/09/20 06:54:33;;;;;;;9.33;3.63;;;12.40;99.90;;;;;;6219700;23;20181;-93
2021/09/20 06:57:04;;;;;;;14.40;3.30;;;12.50;99.90;;;;;;6218769;23;20181;-93
2021/09/20 06:59:35;;;;;;;8.53;3.43;;;12.50;99.90;;;;;;6220756;23;20199;-94
2021/09/20 07:02:07;;;;;;;10.07;3.77;;;12.60;99.90;;;;;;6217952;23;20195;-94
2021/09/20 07:04:41;;;;;;;8.10;3.53;;;12.60;99.90;;;;;;6220906;23;20165;-94
2021/09/20 07:07:13;;;;;;;6.83;3.50;;;12.70;99.90;;;;;;6219725;23;20226;-93
2021/09/20 07:09:44;;;;;;;10.60;3.77;;;12.70;99.90;;;;;;6219527;23;20207;-93
2021/09/20 07:12:16;;;;;;;12.33;3.63;;;12.70;99.90;;;;;;6218792;23;20168;-94
2021/09/20 07:14:47;;;;;;;11.77;4.10;;;12.70;99.90;;;;;;6219699;23;20180;-93
2021/09/20 07:17:18;;;;;;;8.17;3.80;;;12.70;99.90;;;;;;6225107;23;20177;-93
2021/09/20 07:20:06;;;;;;;11.43;3.50;;;12.80;99.90;;;;;;6236952;23;20168;-93
2021/09/20 07:22:37;;;;;;;11.00;3.60;;;12.80;99.90;;;;;;6227403;23;20199;-92
2021/09/20 07:25:11;;;;;;;7.03;3.30;;;12.80;99.90;;;;;;6208894;23;20192;-92
2021/09/20 07:27:43;;;;;;;9.07;3.50;;;12.90;99.90;;;;;;6237552;23;20227;-92
2021/09/20 07:30:19;;;;;;;8.73;3.90;;;12.80;99.90;;;;;;6235408;23;20187;-92
2021/09/20 07:32:52;;;;;;;9.00;3.47;;;12.80;99.90;;;;;;6228982;23;20179;-92
2021/09/20 07:35:27;;;;;;;7.00;3.40;;;12.90;99.90;;;;;;6222299;23;20169;-94
2021/09/20 07:37:59;;;;;;;11.30;3.57;;;12.90;99.90;;;;;;6239225;23;20172;-91
2021/09/20 07:40:31;;;;;;;7.87;3.73;;;12.90;99.90;;;;;;6243513;23;20252;-91
2021/09/20 07:43:04;;;;;;;6.67;3.20;;;12.90;99.90;;;;;;6242982;23;20169;-92
2021/09/20 07:45:36;;;;;;;9.00;3.20;;;12.90;99.90;;;;;;6239325;23;20232;-91
2021/09/20 07:48:08;;;;;;;10.73;3.53;;;12.90;99.90;;;;;;6239553;23;20245;-92
2021/09/20 07:50:42;;;;;;;8.07;3.83;;;12.80;99.90;;;;;;6235619;23;20176;-92
2021/09/20 07:53:13;;;;;;;9.13;4.00;;;12.80;99.90;;;;;;6225328;23;20183;-91
2021/09/20 07:55:44;;;;;;;11.83;3.70;;;12.80;99.90;;;;;;6218873;23;20176;-91
2021/09/20 07:58:16;;;;;;;7.67;3.60;;;12.80;99.90;;;;;;6220623;23;20470;-92
2021/09/20 08:00:47;;;;;;;9.47;3.80;;;12.80;99.90;;;;;;6192558;23;20252;-92
2021/09/20 08:03:18;;;;;;;6.83;3.50;;;12.80;99.90;;;;;;6218998;23;20165;-93
2021/09/20 08:05:52;;;;;;;9.60;3.43;;;12.80;99.90;;;;;;6192938;23;20183;-94
2021/09/20 08:08:25;;;;;;;8.33;3.73;;;12.80;99.90;;;;;;6222221;23;20179;-94
2021/09/20 08:10:56;;;;;;;7.27;3.10;;;12.70;99.90;;;;;;6218928;23;20397;-94
2021/09/20 08:13:28;;;;;;;6.33;3.77;;;12.70;99.90;;;;;;6219233;23;20183;-94
2021/09/20 08:16:00;;;;;;;8.73;4.10;;;12.70;99.90;;;;;;6219016;23;20168;-94
2021/09/20 08:18:31;;;;;;;10.03;4.00;;;12.70;99.90;;;;;;6221136;23;20252;-95
2021/09/20 08:21:06;;;;;;;11.73;4.10;;;12.70;99.90;;;;;;6217721;23;20207;-92
2021/09/20 08:23:38;;;;;;;11.67;3.83;;;12.70;99.90;;;;;;6218104;23;20192;-92
2021/09/20 08:26:10;;;;;;;14.10;3.83;;;12.70;99.90;;;;;;6217616;23;20623;-93
2021/09/20 08:28:41;;;;;;;12.23;4.23;;;12.70;99.90;;;;;;6193271;23;20176;-93
2021/09/20 08:31:13;;;;;;;10.90;3.73;;;12.70;99.90;;;;;;6218064;23;20180;-92
2021/09/20 08:33:44;;;;;;;11.13;4.20;;;12.70;99.90;;;;;;6218688;23;20180;-93
2021/09/20 08:36:18;;;;;;;11.73;4.63;;;12.70;99.90;;;;;;6219245;23;20186;-93
2021/09/20 08:38:49;;;;;;;9.10;3.70;;;12.60;99.90;;;;;;6218762;23;20183;-92
2021/09/20 08:41:20;;;;;;;11.93;4.20;;;12.60;99.90;;;;;;6217567;23;20247;-92
2021/09/20 08:43:51;;;;;;;10.40;4.60;;;12.60;99.90;;;;;;6193327;23;20523;-92
2021/09/20 08:46:24;;;;;;;11.60;4.13;;;12.60;99.90;;;;;;6232402;23;20188;-93
2021/09/20 08:49:00;;;;;;;9.03;4.07;;;12.60;99.90;;;;;;6242907;23;20168;-91
2021/09/20 08:51:33;;;;;;;8.93;4.00;;;12.60;99.90;;;;;;6240313;23;20169;-93
2021/09/20 08:54:05;;;;;;;8.10;4.00;;;12.60;99.90;;;;;;6220856;23;20203;-92
2021/09/20 08:56:36;;;;;;;10.37;3.83;;;12.50;99.90;;;;;;6218762;23;20223;-94
2021/09/20 08:59:08;;;;;;;12.83;4.90;;;12.50;99.90;;;;;;6218262;23;20202;-93
2021/09/20 09:01:42;;;;;;;8.00;4.10;;;12.50;99.90;;;;;;6190973;23;20254;-94
2021/09/20 09:04:30;;;;;;;11.30;4.37;;;12.40;99.90;;;;;;6170309;23;20199;-95
2021/09/20 09:07:05;;;;;;;11.93;4.73;;;12.40;99.90;;;;;;6217628;23;20204;-93
2021/09/20 09:09:38;;;;;;;11.07;4.13;;;12.30;99.90;;;;;;6217252;23;20179;-94
2021/09/20 09:12:21;;;;;;;7.30;3.87;;;12.30;99.90;;;;;;6216930;23;20180;-92
2021/09/20 09:14:56;;;;;;;10.10;4.13;;;12.20;99.90;;;;;;6192328;23;20168;-94
2021/09/20 09:17:29;;;;;;;7.80;3.73;;;12.10;99.90;;;;;;6218274;23;20176;-93
2021/09/20 09:20:05;;;;;;;11.17;4.57;;;12.10;99.90;;;;;;6217811;23;20177;-94
2021/09/20 09:22:47;;;;;;;13.13;4.40;;;12.10;99.90;;;;;;6217063;23;20199;-94
2021/09/20 09:25:21;;;;;;;12.70;4.23;;;12.10;99.90;;;;;;6217508;23;20199;-92
2021/09/20 09:27:55;;;;;;;12.10;4.90;;;12.10;99.90;;;;;;6217184;23;20175;-93
2021/09/20 09:30:28;;;;;;;9.33;3.60;;;12.00;99.90;;;;;;6217994;23;20179;-92
2021/09/20 09:33:08;;;;;;;11.73;4.23;;;11.90;99.90;;;;;;6217306;23;20206;-92
2021/09/20 09:35:45;;;;;;;8.13;4.13;;;11.90;99.90;;;;;;6217920;23;20176;-93
2021/09/20 09:38:20;;;;;;;9.97;3.40;;;11.80;99.90;;;;;;6217392;23;20255;-93
2021/09/20 09:40:57;;;;;;;9.77;4.13;;;11.80;99.90;;;;;;6216783;23;20188;-94
2021/09/20 09:43:30;;;;;;;6.77;4.20;;;11.80;99.90;;;;;;6217874;23;20169;-94
2021/09/20 09:46:03;;;;;;;8.10;4.30;;;11.80;99.90;;;;;;6218220;23;20198;-92
2021/09/20 09:48:36;;;;;;;8.87;3.90;;;11.90;99.90;;;;;;6217711;23;20184;-92
2021/09/20 09:51:07;;;;;;;11.57;3.97;;;11.90;99.90;;;;;;6217474;23;20176;-92
2021/09/20 09:53:41;;;;;;;9.90;3.70;;;12.00;99.90;;;;;;6217428;23;20177;-92
2021/09/20 09:56:27;;;;;;;12.20;4.23;;;12.10;99.90;;;;;;6217539;23;20168;-92
2021/09/20 09:59:00;;;;;;;7.97;3.60;;;12.10;99.90;;;;;;6217179;23;20204;-91
2021/09/20 10:01:32;;;;;;;11.57;3.77;;;12.20;99.90;;;;;;6216668;23;20199;-93
2021/09/20 10:04:09;;;;;;;9.07;4.20;;;12.20;99.90;;;;;;6217799;23;20180;-92
2021/09/20 10:06:52;;;;;;;7.87;3.80;;;12.30;99.90;;;;;;6217585;23;20195;-92
2021/09/20 10:09:26;;;;;;;10.23;3.90;;;12.30;99.90;;;;;;6219930;23;20168;-93
2021/09/20 10:11:58;;;;;;;7.47;3.83;;;12.40;99.90;;;;;;6216366;23;20296;-93
2021/09/20 10:14:31;;;;;;;7.80;3.40;;;12.40;99.90;;;;;;6218176;23;20295;-93
2021/09/20 10:17:02;;;;;;;10.00;4.33;;;12.50;99.90;;;;;;6192861;23;20175;-93
2021/09/20 10:19:34;;;;;;;11.40;4.03;;;12.50;99.90;;;;;;6218226;23;20172;-93
2021/09/20 10:22:05;;;;;;;10.47;3.73;;;12.60;99.90;;;;;;6215977;23;20249;-92
2021/09/20 10:24:38;;;;;;;10.43;4.00;;;12.60;99.90;;;;;;6217521;23;20176;-92
2021/09/20 10:27:11;;;;;;;6.07;3.73;;;12.60;99.90;;;;;;6218839;23;20195;-92
2021/09/20 10:29:47;;;;;;;8.00;3.40;;;12.60;99.90;;;;;;6218785;23;20180;-93
2021/09/20 10:32:19;;;;;;;14.00;4.33;;;12.60;99.90;;;;;;6193148;23;20239;-92
2021/09/20 10:34:52;;;;;;;8.27;4.00;;;12.60;99.90;;;;;;6219909;23;20186;-92
2021/09/20 10:37:27;;;;;;;9.23;3.60;;;12.60;99.90;;;;;;6194262;23;20183;-93
2021/09/20 10:40:04;;;;;;;13.30;4.43;;;12.60;99.90;;;;;;6220590;23;20171;-93
2021/09/20 10:43:06;;;;;;;10.67;3.73;;;12.60;99.90;;;;;;6219940;23;20196;-93
2021/09/20 10:45:52;;;;;;;7.57;4.07;;;12.70;99.90;;;;;;6195322;23;20175;-94
2021/09/20 10:48:34;;;;;;;11.07;4.10;;;12.60;99.90;;;;;;6221567;23;20199;-92
2021/09/20 10:51:22;;;;;;;7.50;4.07;;;12.70;99.90;;;;;;6221344;23;20199;-92
2021/09/20 10:54:18;;;;;;;9.00;3.63;;;12.70;99.90;;;;;;6239743;23;20184;-92
2021/09/20 10:56:55;;;;;;;8.47;3.23;;;12.70;99.90;;;;;;6237295;23;20169;-92
2021/09/20 10:59:33;;;;;;;9.20;3.63;;;12.70;99.90;;;;;;6243815;23;20187;-94
2021/09/20 11:02:27;;;;;;;6.03;3.80;;;12.70;99.90;;;;;;6241848;23;20207;-92
2021/09/20 11:05:07;;;;;;;7.83;4.13;;;12.70;99.90;;;;;;6240265;23;20188;-94
2021/09/20 11:07:46;;;;;;;11.40;4.30;;;12.70;99.90;;;;;;6222072;23;20607;-95
2021/09/20 11:10:19;;;;;;;7.23;3.97;;;12.70;99.90;;;;;;6220654;23;20607;-95
2021/09/20 11:13:07;;;;;;;11.77;4.20;;;12.70;99.90;;;;;;6219354;23;20175;-94
2021/09/20 11:15:42;;;;;;;9.33;3.80;;;12.70;99.90;;;;;;6219786;23;20160;-94
2021/09/20 11:18:33;;;;;;;9.23;4.20;;;12.70;99.90;;;;;;6218971;23;20176;-94
2021/09/20 11:21:08;;;;;;;9.00;3.70;;;12.70;99.90;;;;;;6217996;23;20200;-92
2021/09/20 11:23:40;;;;;;;8.73;3.70;;;12.70;99.90;;;;;;6218864;23;20196;-92
2021/09/20 11:26:20;;;;;;;14.13;4.30;;;12.70;99.90;;;;;;6218635;23;20200;-92
2021/09/20 11:28:55;;;;;;;11.27;3.67;;;12.70;99.90;;;;;;6218543;23;20562;-91
2021/09/20 11:31:31;;;;;;;9.53;3.80;;;12.70;99.90;;;;;;6217493;23;20192;-91
2021/09/20 11:34:02;;;;;;;10.30;3.80;;;12.70;99.90;;;;;;6218216;23;20180;-91
2021/09/20 11:36:36;;;;;;;8.37;3.60;;;12.70;99.90;;;;;;6218983;23;20229;-92
2021/09/20 11:39:16;;;;;;;9.63;3.50;;;12.70;99.90;;;;;;6217564;23;20172;-93
2021/09/20 11:41:56;;;;;;;13.73;3.97;;;12.70;99.90;;;;;;6218053;23;20700;-93
2021/09/20 11:44:49;;;;;;;9.97;3.87;;;12.70;99.90;;;;;;6222403;23;20176;-93
2021/09/20 11:47:22;;;;;;;10.37;3.70;;;12.80;99.90;;;;;;6218870;23;20631;-92
2021/09/20 11:50:03;;;;;;;8.07;3.50;;;12.80;99.90;;;;;;6223200;23;20542;-91
2021/09/20 11:52:36;;;;;;;12.43;3.70;;;12.80;99.90;;;;;;6225196;23;20194;-89
2021/09/20 11:55:14;;;;;;;9.03;3.40;;;12.80;99.90;;;;;;6218337;23;20179;-92
2021/09/20 11:57:47;;;;;;;7.87;3.43;;;12.80;99.90;;;;;;6218227;23;20211;-92
2021/09/20 12:00:23;;;;;;;9.80;3.37;;;12.80;99.90;;;;;;6218680;23;20239;-92
2021/09/20 12:02:57;;;;;;;7.87;3.10;;;12.90;99.90;;;;;;6218299;23;20641;-93
2021/09/20 12:05:31;;;;;;;9.63;3.73;;;12.80;99.90;;;;;;6219102;23;20172;-94
2021/09/20 12:08:04;;;;;;;9.97;3.60;;;12.80;99.90;;;;;;6219350;23;20229;-94
2021/09/20 12:10:37;;;;;;;6.40;3.60;;;12.80;99.90;;;;;;6218448;23;20184;-93
2021/09/20 12:13:10;;;;;;;8.40;4.10;;;12.70;99.90;;;;;;6218499;23;20203;-94
2021/09/20 12:15:46;;;;;;;7.93;3.30;;;12.70;99.90;;;;;;6219479;23;20175;-94
2021/09/20 12:18:23;;;;;;;6.93;3.20;;;12.80;99.90;;;;;;6218682;23;20227;-94
2021/09/20 12:20:57;;;;;;;8.50;3.90;;;12.80;99.90;;;;;;6216709;23;20182;-93
2021/09/20 12:23:31;;;;;;;12.13;3.47;;;12.70;99.90;;;;;;6218935;23;20218;-92
2021/09/20 12:26:05;;;;;;;11.47;3.60;;;12.70;99.90;;;;;;6218494;23;20211;-92
2021/09/20 12:28:38;;;;;;;6.87;3.20;;;12.70;99.90;;;;;;6217949;23;20184;-92
2021/09/20 12:31:12;;;;;;;6.63;3.57;;;12.70;99.90;;;;;;6217987;23;20231;-91
2021/09/20 12:33:56;;;;;;;7.47;3.43;;;12.70;99.90;;;;;;6218831;23;20196;-92
2021/09/20 12:36:32;;;;;;;10.13;3.90;;;12.70;99.90;;;;;;6219452;23;20168;-92
2021/09/20 12:39:08;;;;;;;9.33;3.87;;;12.70;99.90;;;;;;6217928;23;20247;-94
2021/09/20 12:41:42;;;;;;;10.70;3.70;;;12.60;99.90;;;;;;6218386;23;20175;-93
2021/09/20 12:44:17;;;;;;;8.30;3.57;;;12.60;99.90;;;;;;6217408;23;20200;-93
2021/09/20 12:46:50;;;;;;;8.40;3.63;;;12.60;99.90;;;;;;6218680;23;20168;-92
2021/09/20 12:49:23;;;;;;;5.50;3.90;;;12.50;99.90;;;;;;6217289;23;20183;-93
2021/09/20 12:51:57;;;;;;;7.47;3.97;;;12.50;99.90;;;;;;6216897;23;20180;-93
2021/09/20 12:54:31;;;;;;;8.67;3.70;;;12.50;99.90;;;;;;6217803;23;20168;-92
2021/09/20 12:57:19;;;;;;;10.07;4.03;;;12.40;99.90;;;;;;6218716;23;20231;-93
2021/09/20 13:00:02;;;;;;;7.60;3.70;;;12.30;99.90;;;;;;6193055;23;20275;-91
2021/09/20 13:02:37;;;;;;;10.67;4.67;;;12.30;99.90;;;;;;6217841;23;20168;-92
2021/09/20 13:05:11;;;;;;;7.17;3.97;;;12.30;99.90;;;;;;6220046;23;20179;-93
2021/09/20 13:07:43;;;;;;;10.33;3.80;;;12.20;99.90;;;;;;6238177;23;20212;-91
2021/09/20 13:10:16;;;;;;;10.50;3.87;;;12.20;99.90;;;;;;6243185;23;20172;-93
2021/09/20 13:12:51;;;;;;;9.30;4.23;;;12.10;99.90;;;;;;6235372;23;20176;-93
2021/09/20 13:15:24;;;;;;;7.80;3.43;;;12.10;99.90;;;;;;6235374;23;20211;-92
2021/09/20 13:17:58;;;;;;;8.30;3.63;;;12.00;99.90;;;;;;6241885;23;20168;-93
2021/09/20 13:20:31;;;;;;;5.47;3.20;;;11.90;99.90;;;;;;6242621;23;20171;-92
2021/09/20 13:23:05;;;;;;;7.93;3.70;;;11.80;99.90;;;;;;6240788;23;20172;-92
2021/09/20 13:25:37;;;;;;;8.00;4.10;;;11.80;99.90;;;;;;6235907;23;20168;-91
2021/09/20 13:28:11;;;;;;;7.53;3.97;;;11.70;99.90;;;;;;6240488;23;20165;-92
2021/09/20 13:30:44;;;;;;;7.73;4.10;;;11.70;99.90;;;;;;6236166;23;20176;-92